sensor_id;sensor_type;location;lat;lon;timestamp;P1;durP1;ratioP1;P2;durP2;ratioP2
287;SDS011;128;48.770;9.198;2023-07-24T00:02:07;16.20;;;8.07;;
287;SDS011;128;48.770;9.198;2023-07-24T00:04:33;16.77;;;7.90;;
287;SDS011;128;48.770;9.198;2023-07-24T00:06:59;17.50;;;8.83;;
287;SDS011;128;48.770;9.198;2023-07-24T00:09:25;20.53;;;8.50;;
287;SDS011;128;48.770;9.198;2023-07-24T00:11:51;17.83;;;8.57;;
287;SDS011;128;48.770;9.198;2023-07-24T00:14:17;14.83;;;7.80;;
287;SDS011;128;48.770;9.198;2023-07-24T00:16:43;15.53;;;8.20;;
287;SDS011;128;48.770;9.198;2023-07-24T00:19:09;16.00;;;7.40;;
287;SDS011;128;48.770;9.198;2023-07-24T00:21:35;24.03;;;8.10;;
287;SDS011;128;48.770;9.198;2023-07-24T00:24:01;21.37;;;8.43;;
287;SDS011;128;48.770;9.198;2023-07-24T00:26:27;18.70;;;8.20;;
287;SDS011;128;48.770;9.198;2023-07-24T00:28:53;16.90;;;8.53;;
287;SDS011;128;48.770;9.198;2023-07-24T00:31:19;13.20;;;8.00;;
287;SDS011;128;48.770;9.198;2023-07-24T00:33:44;18.43;;;8.60;;
287;SDS011;128;48.770;9.198;2023-07-24T00:36:10;18.70;;;9.30;;
287;SDS011;128;48.770;9.198;2023-07-24T00:38:36;22.10;;;9.10;;
287;SDS011;128;48.770;9.198;2023-07-24T00:41:02;23.17;;;8.73;;
287;SDS011;128;48.770;9.198;2023-07-24T00:43:28;21.50;;;8.40;;
287;SDS011;128;48.770;9.198;2023-07-24T00:45:54;18.17;;;8.03;;
287;SDS011;128;48.770;9.198;2023-07-24T00:48:21;16.97;;;8.47;;
287;SDS011;128;48.770;9.198;2023-07-24T00:50:47;15.50;;;7.60;;
287;SDS011;128;48.770;9.198;2023-07-24T00:53:13;17.63;;;7.83;;
287;SDS011;128;48.770;9.198;2023-07-24T00:55:41;17.43;;;8.30;;
287;SDS011;128;48.770;9.198;2023-07-24T00:58:07;13.10;;;6.70;;
287;SDS011;128;48.770;9.198;2023-07-24T01:00:36;18.30;;;9.07;;
287;SDS011;128;48.770;9.198;2023-07-24T01:03:03;19.97;;;8.60;;
287;SDS011;128;48.770;9.198;2023-07-24T01:05:28;17.27;;;7.93;;
287;SDS011;128;48.770;9.198;2023-07-24T01:07:55;14.33;;;7.53;;
287;SDS011;128;48.770;9.198;2023-07-24T01:10:21;19.43;;;9.00;;
287;SDS011;128;48.770;9.198;2023-07-24T01:13:09;15.03;;;7.80;;
287;SDS011;128;48.770;9.198;2023-07-24T01:15:37;15.53;;;7.97;;
287;SDS011;128;48.770;9.198;2023-07-24T01:18:08;15.33;;;8.20;;
287;SDS011;128;48.770;9.198;2023-07-24T01:20:35;14.57;;;7.70;;
287;SDS011;128;48.770;9.198;2023-07-24T01:23:13;17.70;;;7.37;;
287;SDS011;128;48.770;9.198;2023-07-24T01:25:50;13.13;;;7.40;;
287;SDS011;128;48.770;9.198;2023-07-24T01:28:18;15.37;;;7.93;;
287;SDS011;128;48.770;9.198;2023-07-24T01:30:44;17.83;;;7.60;;
287;SDS011;128;48.770;9.198;2023-07-24T01:33:10;15.77;;;7.30;;
287;SDS011;128;48.770;9.198;2023-07-24T01:35:36;14.90;;;6.57;;
287;SDS011;128;48.770;9.198;2023-07-24T01:38:03;14.50;;;7.27;;
287;SDS011;128;48.770;9.198;2023-07-24T01:40:29;16.07;;;7.57;;
287;SDS011;128;48.770;9.198;2023-07-24T01:42:56;14.80;;;7.80;;
287;SDS011;128;48.770;9.198;2023-07-24T01:45:24;20.30;;;8.87;;
287;SDS011;128;48.770;9.198;2023-07-24T01:47:50;16.50;;;8.10;;
287;SDS011;128;48.770;9.198;2023-07-24T01:50:16;26.13;;;8.27;;
287;SDS011;128;48.770;9.198;2023-07-24T01:52:42;15.00;;;6.97;;
287;SDS011;128;48.770;9.198;2023-07-24T01:55:10;15.70;;;8.10;;
287;SDS011;128;48.770;9.198;2023-07-24T01:57:36;13.60;;;6.93;;
287;SDS011;128;48.770;9.198;2023-07-24T02:00:02;14.60;;;7.83;;
287;SDS011;128;48.770;9.198;2023-07-24T02:02:28;15.80;;;8.03;;
287;SDS011;128;48.770;9.198;2023-07-24T02:04:54;16.00;;;7.87;;
287;SDS011;128;48.770;9.198;2023-07-24T02:07:19;16.20;;;7.93;;
287;SDS011;128;48.770;9.198;2023-07-24T02:09:45;12.80;;;6.93;;
287;SDS011;128;48.770;9.198;2023-07-24T02:12:11;14.80;;;7.00;;
287;SDS011;128;48.770;9.198;2023-07-24T02:14:37;16.37;;;7.03;;
287;SDS011;128;48.770;9.198;2023-07-24T02:17:03;17.03;;;7.20;;
287;SDS011;128;48.770;9.198;2023-07-24T02:19:29;15.20;;;7.17;;
287;SDS011;128;48.770;9.198;2023-07-24T02:21:55;17.57;;;8.53;;
287;SDS011;128;48.770;9.198;2023-07-24T02:24:21;12.60;;;6.70;;
287;SDS011;128;48.770;9.198;2023-07-24T02:26:47;21.67;;;8.03;;
287;SDS011;128;48.770;9.198;2023-07-24T02:29:13;13.40;;;7.13;;
287;SDS011;128;48.770;9.198;2023-07-24T02:31:39;15.40;;;7.03;;
287;SDS011;128;48.770;9.198;2023-07-24T02:34:05;16.03;;;8.17;;
287;SDS011;128;48.770;9.198;2023-07-24T02:36:30;18.00;;;6.70;;
287;SDS011;128;48.770;9.198;2023-07-24T02:38:56;13.70;;;7.30;;
287;SDS011;128;48.770;9.198;2023-07-24T02:41:22;13.37;;;6.73;;
287;SDS011;128;48.770;9.198;2023-07-24T02:43:48;20.63;;;7.67;;
287;SDS011;128;48.770;9.198;2023-07-24T02:46:14;14.67;;;7.43;;
287;SDS011;128;48.770;9.198;2023-07-24T02:48:40;18.33;;;6.90;;
287;SDS011;128;48.770;9.198;2023-07-24T02:51:06;13.90;;;7.67;;
287;SDS011;128;48.770;9.198;2023-07-24T02:53:32;14.80;;;7.40;;
287;SDS011;128;48.770;9.198;2023-07-24T02:55:58;13.83;;;6.73;;
287;SDS011;128;48.770;9.198;2023-07-24T02:58:24;11.83;;;6.30;;
287;SDS011;128;48.770;9.198;2023-07-24T03:00:50;17.50;;;8.43;;
287;SDS011;128;48.770;9.198;2023-07-24T03:03:16;17.67;;;7.83;;
287;SDS011;128;48.770;9.198;2023-07-24T03:05:42;14.27;;;7.10;;
287;SDS011;128;48.770;9.198;2023-07-24T03:08:08;15.40;;;6.97;;
287;SDS011;128;48.770;9.198;2023-07-24T03:10:34;12.73;;;7.20;;
287;SDS011;128;48.770;9.198;2023-07-24T03:13:00;16.53;;;7.40;;
287;SDS011;128;48.770;9.198;2023-07-24T03:15:25;14.87;;;7.37;;
287;SDS011;128;48.770;9.198;2023-07-24T03:17:51;15.87;;;7.07;;
287;SDS011;128;48.770;9.198;2023-07-24T03:20:18;17.70;;;7.77;;
287;SDS011;128;48.770;9.198;2023-07-24T03:22:44;16.67;;;7.10;;
287;SDS011;128;48.770;9.198;2023-07-24T03:25:10;16.73;;;7.47;;
287;SDS011;128;48.770;9.198;2023-07-24T03:27:36;20.97;;;7.10;;
287;SDS011;128;48.770;9.198;2023-07-24T03:30:02;16.17;;;7.90;;
287;SDS011;128;48.770;9.198;2023-07-24T03:32:29;13.03;;;7.17;;
287;SDS011;128;48.770;9.198;2023-07-24T03:34:54;14.87;;;7.33;;
287;SDS011;128;48.770;9.198;2023-07-24T03:37:20;16.90;;;7.20;;
287;SDS011;128;48.770;9.198;2023-07-24T03:39:46;16.63;;;8.00;;
287;SDS011;128;48.770;9.198;2023-07-24T03:42:23;14.87;;;7.53;;
287;SDS011;128;48.770;9.198;2023-07-24T03:44:50;18.80;;;8.53;;
287;SDS011;128;48.770;9.198;2023-07-24T03:47:16;17.10;;;7.73;;
287;SDS011;128;48.770;9.198;2023-07-24T03:49:42;12.87;;;6.50;;
287;SDS011;128;48.770;9.198;2023-07-24T03:52:07;15.07;;;6.30;;
287;SDS011;128;48.770;9.198;2023-07-24T03:54:33;17.57;;;8.43;;
287;SDS011;128;48.770;9.198;2023-07-24T03:56:59;16.30;;;7.30;;
287;SDS011;128;48.770;9.198;2023-07-24T03:59:25;13.20;;;6.73;;
287;SDS011;128;48.770;9.198;2023-07-24T04:01:51;14.40;;;7.13;;
287;SDS011;128;48.770;9.198;2023-07-24T04:04:17;15.70;;;6.93;;
287;SDS011;128;48.770;9.198;2023-07-24T04:06:43;12.90;;;6.87;;
287;SDS011;128;48.770;9.198;2023-07-24T04:09:09;13.93;;;7.80;;
287;SDS011;128;48.770;9.198;2023-07-24T04:11:39;13.93;;;6.60;;
287;SDS011;128;48.770;9.198;2023-07-24T04:14:05;14.47;;;7.33;;
287;SDS011;128;48.770;9.198;2023-07-24T04:16:31;17.60;;;8.03;;
287;SDS011;128;48.770;9.198;2023-07-24T04:18:57;17.63;;;7.77;;
287;SDS011;128;48.770;9.198;2023-07-24T04:21:23;17.17;;;7.80;;
287;SDS011;128;48.770;9.198;2023-07-24T04:23:48;14.57;;;7.20;;
287;SDS011;128;48.770;9.198;2023-07-24T04:26:14;16.40;;;8.20;;
287;SDS011;128;48.770;9.198;2023-07-24T04:28:40;18.90;;;8.17;;
287;SDS011;128;48.770;9.198;2023-07-24T04:31:06;18.10;;;7.60;;
287;SDS011;128;48.770;9.198;2023-07-24T04:33:32;15.17;;;6.90;;
287;SDS011;128;48.770;9.198;2023-07-24T04:35:58;22.17;;;8.00;;
287;SDS011;128;48.770;9.198;2023-07-24T04:38:24;17.40;;;8.00;;
287;SDS011;128;48.770;9.198;2023-07-24T04:40:50;17.57;;;7.97;;
287;SDS011;128;48.770;9.198;2023-07-24T04:43:16;21.67;;;8.90;;
287;SDS011;128;48.770;9.198;2023-07-24T04:45:42;15.13;;;7.50;;
287;SDS011;128;48.770;9.198;2023-07-24T04:48:08;19.90;;;7.80;;
287;SDS011;128;48.770;9.198;2023-07-24T04:50:34;23.13;;;8.83;;
287;SDS011;128;48.770;9.198;2023-07-24T04:53:00;17.83;;;8.03;;
287;SDS011;128;48.770;9.198;2023-07-24T04:55:26;18.40;;;7.80;;
287;SDS011;128;48.770;9.198;2023-07-24T04:57:52;16.00;;;8.07;;
287;SDS011;128;48.770;9.198;2023-07-24T05:00:18;19.73;;;8.73;;
287;SDS011;128;48.770;9.198;2023-07-24T05:02:43;15.73;;;7.13;;
287;SDS011;128;48.770;9.198;2023-07-24T05:05:09;15.70;;;6.63;;
287;SDS011;128;48.770;9.198;2023-07-24T05:07:35;13.70;;;6.83;;
287;SDS011;128;48.770;9.198;2023-07-24T05:10:01;16.60;;;8.27;;
287;SDS011;128;48.770;9.198;2023-07-24T05:12:27;16.00;;;7.77;;
287;SDS011;128;48.770;9.198;2023-07-24T05:14:53;17.70;;;7.07;;
287;SDS011;128;48.770;9.198;2023-07-24T05:17:19;16.43;;;7.53;;
287;SDS011;128;48.770;9.198;2023-07-24T05:19:45;13.90;;;7.47;;
287;SDS011;128;48.770;9.198;2023-07-24T05:22:11;19.70;;;7.93;;
287;SDS011;128;48.770;9.198;2023-07-24T05:24:37;16.60;;;7.47;;
287;SDS011;128;48.770;9.198;2023-07-24T05:27:03;18.70;;;8.23;;
287;SDS011;128;48.770;9.198;2023-07-24T05:29:29;16.83;;;7.33;;
287;SDS011;128;48.770;9.198;2023-07-24T05:31:55;14.87;;;7.87;;
287;SDS011;128;48.770;9.198;2023-07-24T05:34:21;20.83;;;8.10;;
287;SDS011;128;48.770;9.198;2023-07-24T05:36:47;17.90;;;7.83;;
287;SDS011;128;48.770;9.198;2023-07-24T05:39:13;16.57;;;8.00;;
287;SDS011;128;48.770;9.198;2023-07-24T05:41:39;15.73;;;8.23;;
287;SDS011;128;48.770;9.198;2023-07-24T05:44:05;20.00;;;8.50;;
287;SDS011;128;48.770;9.198;2023-07-24T05:46:31;15.93;;;6.90;;
287;SDS011;128;48.770;9.198;2023-07-24T05:48:57;18.50;;;7.80;;
287;SDS011;128;48.770;9.198;2023-07-24T05:51:25;17.07;;;8.10;;
287;SDS011;128;48.770;9.198;2023-07-24T05:53:51;15.73;;;6.87;;
287;SDS011;128;48.770;9.198;2023-07-24T05:56:16;15.27;;;7.10;;
287;SDS011;128;48.770;9.198;2023-07-24T05:58:42;15.83;;;8.63;;
287;SDS011;128;48.770;9.198;2023-07-24T06:01:08;18.40;;;8.27;;
287;SDS011;128;48.770;9.198;2023-07-24T06:03:35;16.33;;;7.10;;
287;SDS011;128;48.770;9.198;2023-07-24T06:06:02;16.03;;;6.67;;
287;SDS011;128;48.770;9.198;2023-07-24T06:08:27;16.60;;;7.73;;
287;SDS011;128;48.770;9.198;2023-07-24T06:10:53;16.87;;;7.37;;
287;SDS011;128;48.770;9.198;2023-07-24T06:13:19;15.40;;;7.90;;
287;SDS011;128;48.770;9.198;2023-07-24T06:15:46;17.87;;;8.17;;
287;SDS011;128;48.770;9.198;2023-07-24T06:18:13;17.80;;;8.27;;
287;SDS011;128;48.770;9.198;2023-07-24T06:20:39;21.67;;;8.60;;
287;SDS011;128;48.770;9.198;2023-07-24T06:23:05;21.47;;;8.10;;
287;SDS011;128;48.770;9.198;2023-07-24T06:25:31;19.87;;;7.80;;
287;SDS011;128;48.770;9.198;2023-07-24T06:27:57;17.83;;;7.70;;
287;SDS011;128;48.770;9.198;2023-07-24T06:30:23;22.63;;;9.20;;
287;SDS011;128;48.770;9.198;2023-07-24T06:32:49;20.50;;;8.13;;
287;SDS011;128;48.770;9.198;2023-07-24T06:40:46;17.50;;;7.87;;
287;SDS011;128;48.770;9.198;2023-07-24T06:43:12;14.93;;;7.20;;
287;SDS011;128;48.770;9.198;2023-07-24T06:48:41;15.43;;;7.33;;
287;SDS011;128;48.770;9.198;2023-07-24T06:51:07;15.77;;;8.07;;
287;SDS011;128;48.770;9.198;2023-07-24T06:53:33;18.33;;;8.27;;
287;SDS011;128;48.770;9.198;2023-07-24T06:55:59;18.60;;;7.53;;
287;SDS011;128;48.770;9.198;2023-07-24T06:58:25;17.83;;;7.93;;
287;SDS011;128;48.770;9.198;2023-07-24T07:00:50;19.10;;;8.60;;
287;SDS011;128;48.770;9.198;2023-07-24T07:03:16;17.30;;;7.53;;
287;SDS011;128;48.770;9.198;2023-07-24T07:05:42;17.10;;;7.77;;
287;SDS011;128;48.770;9.198;2023-07-24T07:08:08;18.47;;;8.17;;
287;SDS011;128;48.770;9.198;2023-07-24T07:10:34;13.63;;;6.60;;
287;SDS011;128;48.770;9.198;2023-07-24T07:13:00;17.43;;;8.37;;
287;SDS011;128;48.770;9.198;2023-07-24T07:15:26;16.17;;;7.20;;
287;SDS011;128;48.770;9.198;2023-07-24T07:17:52;15.97;;;7.20;;
287;SDS011;128;48.770;9.198;2023-07-24T07:20:18;16.17;;;7.73;;
287;SDS011;128;48.770;9.198;2023-07-24T07:22:44;16.93;;;7.50;;
287;SDS011;128;48.770;9.198;2023-07-24T07:25:10;17.83;;;7.80;;
287;SDS011;128;48.770;9.198;2023-07-24T07:27:36;16.53;;;7.73;;
287;SDS011;128;48.770;9.198;2023-07-24T07:30:02;20.33;;;7.30;;
287;SDS011;128;48.770;9.198;2023-07-24T07:32:29;20.03;;;8.20;;
287;SDS011;128;48.770;9.198;2023-07-24T07:34:55;13.40;;;6.80;;
287;SDS011;128;48.770;9.198;2023-07-24T07:37:21;16.33;;;7.73;;
287;SDS011;128;48.770;9.198;2023-07-24T07:39:47;16.13;;;7.60;;
287;SDS011;128;48.770;9.198;2023-07-24T07:42:12;17.30;;;8.57;;
287;SDS011;128;48.770;9.198;2023-07-24T07:44:38;14.80;;;7.43;;
287;SDS011;128;48.770;9.198;2023-07-24T07:47:04;13.23;;;7.30;;
287;SDS011;128;48.770;9.198;2023-07-24T07:49:31;22.63;;;8.00;;
287;SDS011;128;48.770;9.198;2023-07-24T07:51:57;21.13;;;7.47;;
287;SDS011;128;48.770;9.198;2023-07-24T07:54:23;22.00;;;7.40;;
287;SDS011;128;48.770;9.198;2023-07-24T07:56:48;18.37;;;7.20;;
287;SDS011;128;48.770;9.198;2023-07-24T07:59:14;16.20;;;6.73;;
287;SDS011;128;48.770;9.198;2023-07-24T08:01:40;23.43;;;8.07;;
287;SDS011;128;48.770;9.198;2023-07-24T08:04:07;20.07;;;7.57;;
287;SDS011;128;48.770;9.198;2023-07-24T08:06:33;16.40;;;7.67;;
287;SDS011;128;48.770;9.198;2023-07-24T08:08:59;17.83;;;8.07;;
287;SDS011;128;48.770;9.198;2023-07-24T08:11:24;19.83;;;7.13;;
287;SDS011;128;48.770;9.198;2023-07-24T08:13:50;15.97;;;7.53;;
287;SDS011;128;48.770;9.198;2023-07-24T08:16:16;17.60;;;8.10;;
287;SDS011;128;48.770;9.198;2023-07-24T08:18:47;17.40;;;8.50;;
287;SDS011;128;48.770;9.198;2023-07-24T08:21:13;20.93;;;9.07;;
287;SDS011;128;48.770;9.198;2023-07-24T08:23:40;18.23;;;9.00;;
287;SDS011;128;48.770;9.198;2023-07-24T08:26:06;20.20;;;8.90;;
287;SDS011;128;48.770;9.198;2023-07-24T08:28:32;23.43;;;9.03;;
287;SDS011;128;48.770;9.198;2023-07-24T08:31:00;21.53;;;10.50;;
287;SDS011;128;48.770;9.198;2023-07-24T08:33:29;26.33;;;9.97;;
287;SDS011;128;48.770;9.198;2023-07-24T08:36:01;27.87;;;10.13;;
287;SDS011;128;48.770;9.198;2023-07-24T08:38:28;16.27;;;8.87;;
287;SDS011;128;48.770;9.198;2023-07-24T08:41:07;20.80;;;9.57;;
287;SDS011;128;48.770;9.198;2023-07-24T08:43:33;25.53;;;9.83;;
287;SDS011;128;48.770;9.198;2023-07-24T08:46:00;16.80;;;8.53;;
287;SDS011;128;48.770;9.198;2023-07-24T08:48:26;20.03;;;8.30;;
287;SDS011;128;48.770;9.198;2023-07-24T08:50:54;16.70;;;8.57;;
287;SDS011;128;48.770;9.198;2023-07-24T08:53:21;14.23;;;7.57;;
287;SDS011;128;48.770;9.198;2023-07-24T08:55:48;16.93;;;8.03;;
287;SDS011;128;48.770;9.198;2023-07-24T08:58:14;16.70;;;8.97;;
287;SDS011;128;48.770;9.198;2023-07-24T09:00:40;15.43;;;8.73;;
287;SDS011;128;48.770;9.198;2023-07-24T09:03:06;18.10;;;7.97;;
287;SDS011;128;48.770;9.198;2023-07-24T09:05:33;18.27;;;7.90;;
287;SDS011;128;48.770;9.198;2023-07-24T09:07:58;20.63;;;7.63;;
287;SDS011;128;48.770;9.198;2023-07-24T09:10:25;14.77;;;7.27;;
287;SDS011;128;48.770;9.198;2023-07-24T09:12:51;20.87;;;8.00;;
287;SDS011;128;48.770;9.198;2023-07-24T09:15:17;16.80;;;8.43;;
287;SDS011;128;48.770;9.198;2023-07-24T09:17:49;13.90;;;7.10;;
287;SDS011;128;48.770;9.198;2023-07-24T09:20:15;15.33;;;7.53;;
287;SDS011;128;48.770;9.198;2023-07-24T09:22:51;14.20;;;6.37;;
287;SDS011;128;48.770;9.198;2023-07-24T09:25:17;16.40;;;7.50;;
287;SDS011;128;48.770;9.198;2023-07-24T09:27:43;16.67;;;6.80;;
287;SDS011;128;48.770;9.198;2023-07-24T09:30:13;12.63;;;6.13;;
287;SDS011;128;48.770;9.198;2023-07-24T09:32:39;12.77;;;5.90;;
287;SDS011;128;48.770;9.198;2023-07-24T09:35:15;11.20;;;5.67;;
287;SDS011;128;48.770;9.198;2023-07-24T09:37:42;8.90;;;5.13;;
287;SDS011;128;48.770;9.198;2023-07-24T09:40:08;15.53;;;5.67;;
287;SDS011;128;48.770;9.198;2023-07-24T09:42:35;15.77;;;5.60;;
287;SDS011;128;48.770;9.198;2023-07-24T09:45:02;21.93;;;5.70;;
287;SDS011;128;48.770;9.198;2023-07-24T09:47:28;11.17;;;5.57;;
287;SDS011;128;48.770;9.198;2023-07-24T09:49:54;11.00;;;5.23;;
287;SDS011;128;48.770;9.198;2023-07-24T09:52:21;14.47;;;6.03;;
287;SDS011;128;48.770;9.198;2023-07-24T09:55:01;10.37;;;5.47;;
287;SDS011;128;48.770;9.198;2023-07-24T09:57:28;10.97;;;5.90;;
287;SDS011;128;48.770;9.198;2023-07-24T09:59:54;17.27;;;6.50;;
287;SDS011;128;48.770;9.198;2023-07-24T10:02:21;11.63;;;5.37;;
287;SDS011;128;48.770;9.198;2023-07-24T10:04:48;19.50;;;6.47;;
287;SDS011;128;48.770;9.198;2023-07-24T10:07:15;13.80;;;5.57;;
287;SDS011;128;48.770;9.198;2023-07-24T10:09:42;14.17;;;5.73;;
287;SDS011;128;48.770;9.198;2023-07-24T10:12:09;19.23;;;6.40;;
287;SDS011;128;48.770;9.198;2023-07-24T10:14:35;16.30;;;6.10;;
287;SDS011;128;48.770;9.198;2023-07-24T10:17:02;11.83;;;6.10;;
287;SDS011;128;48.770;9.198;2023-07-24T10:19:43;12.20;;;6.30;;
287;SDS011;128;48.770;9.198;2023-07-24T10:22:16;12.37;;;5.57;;
287;SDS011;128;48.770;9.198;2023-07-24T10:24:44;11.07;;;6.50;;
287;SDS011;128;48.770;9.198;2023-07-24T10:27:11;13.93;;;5.57;;
287;SDS011;128;48.770;9.198;2023-07-24T10:29:37;14.00;;;6.83;;
287;SDS011;128;48.770;9.198;2023-07-24T10:32:04;12.90;;;6.80;;
287;SDS011;128;48.770;9.198;2023-07-24T10:34:39;15.60;;;5.87;;
287;SDS011;128;48.770;9.198;2023-07-24T10:37:07;15.70;;;6.87;;
287;SDS011;128;48.770;9.198;2023-07-24T10:39:40;12.07;;;6.43;;
287;SDS011;128;48.770;9.198;2023-07-24T10:42:09;12.43;;;7.03;;
287;SDS011;128;48.770;9.198;2023-07-24T10:44:36;14.73;;;7.70;;
287;SDS011;128;48.770;9.198;2023-07-24T10:47:02;16.00;;;7.10;;
287;SDS011;128;48.770;9.198;2023-07-24T10:49:29;19.57;;;8.23;;
287;SDS011;128;48.770;9.198;2023-07-24T10:51:55;16.00;;;7.60;;
287;SDS011;128;48.770;9.198;2023-07-24T10:54:21;16.03;;;7.40;;
287;SDS011;128;48.770;9.198;2023-07-24T10:56:47;19.20;;;8.10;;
287;SDS011;128;48.770;9.198;2023-07-24T10:59:13;16.43;;;7.83;;
287;SDS011;128;48.770;9.198;2023-07-24T11:01:42;13.40;;;8.13;;
287;SDS011;128;48.770;9.198;2023-07-24T11:04:09;15.37;;;7.50;;
287;SDS011;128;48.770;9.198;2023-07-24T11:06:37;21.23;;;8.47;;
287;SDS011;128;48.770;9.198;2023-07-24T11:09:03;32.13;;;11.10;;
287;SDS011;128;48.770;9.198;2023-07-24T11:11:29;22.07;;;9.80;;
287;SDS011;128;48.770;9.198;2023-07-24T11:13:56;31.23;;;9.00;;
287;SDS011;128;48.770;9.198;2023-07-24T11:16:22;19.47;;;9.80;;
287;SDS011;128;48.770;9.198;2023-07-24T11:18:49;12.37;;;7.53;;
287;SDS011;128;48.770;9.198;2023-07-24T11:21:16;16.13;;;8.70;;
287;SDS011;128;48.770;9.198;2023-07-24T11:23:49;17.40;;;9.30;;
287;SDS011;128;48.770;9.198;2023-07-24T11:26:15;18.57;;;10.80;;
287;SDS011;128;48.770;9.198;2023-07-24T11:28:43;18.43;;;9.30;;
287;SDS011;128;48.770;9.198;2023-07-24T11:31:09;14.80;;;8.27;;
287;SDS011;128;48.770;9.198;2023-07-24T11:33:36;16.80;;;9.10;;
287;SDS011;128;48.770;9.198;2023-07-24T11:36:02;17.37;;;8.90;;
287;SDS011;128;48.770;9.198;2023-07-24T11:38:28;18.37;;;9.23;;
287;SDS011;128;48.770;9.198;2023-07-24T11:40:54;21.73;;;9.37;;
287;SDS011;128;48.770;9.198;2023-07-24T11:43:22;19.40;;;10.47;;
287;SDS011;128;48.770;9.198;2023-07-24T11:45:49;23.67;;;10.50;;
287;SDS011;128;48.770;9.198;2023-07-24T11:48:19;18.40;;;10.60;;
287;SDS011;128;48.770;9.198;2023-07-24T11:50:46;15.37;;;8.60;;
287;SDS011;128;48.770;9.198;2023-07-24T11:53:18;15.83;;;8.70;;
287;SDS011;128;48.770;9.198;2023-07-24T11:55:45;17.93;;;8.33;;
287;SDS011;128;48.770;9.198;2023-07-24T11:58:13;14.07;;;8.50;;
287;SDS011;128;48.770;9.198;2023-07-24T12:00:40;11.97;;;7.10;;
287;SDS011;128;48.770;9.198;2023-07-24T12:03:06;14.10;;;7.53;;
287;SDS011;128;48.770;9.198;2023-07-24T12:05:39;24.40;;;7.20;;
287;SDS011;128;48.770;9.198;2023-07-24T12:08:05;12.37;;;7.20;;
287;SDS011;128;48.770;9.198;2023-07-24T12:10:31;13.87;;;6.97;;
287;SDS011;128;48.770;9.198;2023-07-24T12:12:58;15.17;;;8.33;;
287;SDS011;128;48.770;9.198;2023-07-24T12:15:24;12.07;;;7.47;;
287;SDS011;128;48.770;9.198;2023-07-24T12:17:51;17.63;;;8.03;;
287;SDS011;128;48.770;9.198;2023-07-24T12:20:17;13.10;;;7.63;;
287;SDS011;128;48.770;9.198;2023-07-24T12:22:43;17.33;;;7.63;;
287;SDS011;128;48.770;9.198;2023-07-24T12:25:09;14.43;;;7.17;;
287;SDS011;128;48.770;9.198;2023-07-24T12:27:35;18.40;;;8.07;;
287;SDS011;128;48.770;9.198;2023-07-24T12:30:03;12.07;;;6.93;;
287;SDS011;128;48.770;9.198;2023-07-24T12:32:29;12.87;;;7.30;;
287;SDS011;128;48.770;9.198;2023-07-24T12:34:55;18.20;;;7.67;;
287;SDS011;128;48.770;9.198;2023-07-24T12:37:21;14.40;;;7.93;;
287;SDS011;128;48.770;9.198;2023-07-24T12:39:47;12.63;;;6.50;;
287;SDS011;128;48.770;9.198;2023-07-24T12:42:13;14.40;;;7.33;;
287;SDS011;128;48.770;9.198;2023-07-24T12:44:40;13.90;;;6.23;;
287;SDS011;128;48.770;9.198;2023-07-24T12:47:06;18.53;;;6.77;;
287;SDS011;128;48.770;9.198;2023-07-24T12:49:32;20.23;;;8.00;;
287;SDS011;128;48.770;9.198;2023-07-24T12:51:58;14.37;;;7.10;;
287;SDS011;128;48.770;9.198;2023-07-24T12:54:24;12.33;;;6.57;;
287;SDS011;128;48.770;9.198;2023-07-24T12:56:50;14.90;;;6.97;;
287;SDS011;128;48.770;9.198;2023-07-24T12:59:16;12.53;;;6.03;;
287;SDS011;128;48.770;9.198;2023-07-24T13:01:42;13.80;;;5.67;;
287;SDS011;128;48.770;9.198;2023-07-24T13:04:08;11.63;;;5.27;;
287;SDS011;128;48.770;9.198;2023-07-24T13:06:34;10.90;;;6.30;;
287;SDS011;128;48.770;9.198;2023-07-24T13:09:00;13.57;;;6.03;;
287;SDS011;128;48.770;9.198;2023-07-24T13:11:26;11.17;;;5.60;;
287;SDS011;128;48.770;9.198;2023-07-24T13:13:55;13.33;;;6.40;;
287;SDS011;128;48.770;9.198;2023-07-24T13:16:22;11.50;;;7.10;;
287;SDS011;128;48.770;9.198;2023-07-24T13:18:48;9.83;;;5.87;;
287;SDS011;128;48.770;9.198;2023-07-24T13:21:14;10.87;;;5.67;;
287;SDS011;128;48.770;9.198;2023-07-24T13:23:40;9.40;;;5.70;;
287;SDS011;128;48.770;9.198;2023-07-24T13:26:06;10.20;;;5.00;;
287;SDS011;128;48.770;9.198;2023-07-24T13:28:36;7.60;;;4.53;;
287;SDS011;128;48.770;9.198;2023-07-24T13:31:15;10.00;;;4.87;;
287;SDS011;128;48.770;9.198;2023-07-24T13:33:41;7.80;;;4.40;;
287;SDS011;128;48.770;9.198;2023-07-24T13:36:07;13.77;;;5.77;;
287;SDS011;128;48.770;9.198;2023-07-24T13:38:33;10.63;;;4.80;;
287;SDS011;128;48.770;9.198;2023-07-24T13:40:59;9.07;;;4.53;;
287;SDS011;128;48.770;9.198;2023-07-24T13:43:25;8.70;;;4.63;;
287;SDS011;128;48.770;9.198;2023-07-24T13:45:51;7.43;;;4.77;;
287;SDS011;128;48.770;9.198;2023-07-24T13:48:18;17.13;;;5.40;;
287;SDS011;128;48.770;9.198;2023-07-24T13:50:44;8.60;;;5.07;;
287;SDS011;128;48.770;9.198;2023-07-24T13:53:10;10.87;;;4.97;;
287;SDS011;128;48.770;9.198;2023-07-24T13:55:37;9.47;;;5.10;;
287;SDS011;128;48.770;9.198;2023-07-24T13:58:02;6.60;;;4.10;;
287;SDS011;128;48.770;9.198;2023-07-24T14:00:28;9.23;;;4.20;;
287;SDS011;128;48.770;9.198;2023-07-24T14:02:54;7.70;;;4.40;;
287;SDS011;128;48.770;9.198;2023-07-24T14:05:20;10.13;;;4.50;;
287;SDS011;128;48.770;9.198;2023-07-24T14:07:46;10.10;;;4.97;;
287;SDS011;128;48.770;9.198;2023-07-24T14:10:12;7.20;;;4.00;;
287;SDS011;128;48.770;9.198;2023-07-24T14:12:38;10.53;;;4.20;;
287;SDS011;128;48.770;9.198;2023-07-24T14:15:04;10.10;;;5.23;;
287;SDS011;128;48.770;9.198;2023-07-24T14:17:30;7.03;;;4.17;;
287;SDS011;128;48.770;9.198;2023-07-24T14:19:56;17.93;;;5.00;;
287;SDS011;128;48.770;9.198;2023-07-24T14:22:22;6.90;;;4.07;;
287;SDS011;128;48.770;9.198;2023-07-24T14:24:48;8.30;;;4.40;;
287;SDS011;128;48.770;9.198;2023-07-24T14:27:14;8.93;;;4.70;;
287;SDS011;128;48.770;9.198;2023-07-24T14:29:40;6.70;;;3.73;;
287;SDS011;128;48.770;9.198;2023-07-24T14:32:06;10.30;;;4.20;;
287;SDS011;128;48.770;9.198;2023-07-24T14:34:32;7.57;;;4.40;;
287;SDS011;128;48.770;9.198;2023-07-24T14:36:58;8.10;;;4.73;;
287;SDS011;128;48.770;9.198;2023-07-24T14:39:24;7.00;;;3.97;;
287;SDS011;128;48.770;9.198;2023-07-24T14:41:50;8.70;;;4.60;;
287;SDS011;128;48.770;9.198;2023-07-24T14:44:16;11.80;;;4.20;;
287;SDS011;128;48.770;9.198;2023-07-24T14:46:42;6.03;;;3.73;;
287;SDS011;128;48.770;9.198;2023-07-24T14:49:08;7.53;;;3.63;;
287;SDS011;128;48.770;9.198;2023-07-24T14:51:34;8.03;;;3.67;;
287;SDS011;128;48.770;9.198;2023-07-24T14:54:00;7.10;;;3.97;;
287;SDS011;128;48.770;9.198;2023-07-24T14:56:26;8.07;;;3.90;;
287;SDS011;128;48.770;9.198;2023-07-24T14:58:52;10.90;;;3.80;;
287;SDS011;128;48.770;9.198;2023-07-24T15:01:18;8.07;;;4.03;;
287;SDS011;128;48.770;9.198;2023-07-24T15:03:44;8.17;;;4.53;;
287;SDS011;128;48.770;9.198;2023-07-24T15:06:10;8.83;;;4.40;;
287;SDS011;128;48.770;9.198;2023-07-24T15:08:35;5.70;;;3.00;;
287;SDS011;128;48.770;9.198;2023-07-24T15:11:01;6.07;;;3.50;;
287;SDS011;128;48.770;9.198;2023-07-24T15:13:27;7.10;;;3.90;;
287;SDS011;128;48.770;9.198;2023-07-24T15:15:53;7.33;;;3.60;;
287;SDS011;128;48.770;9.198;2023-07-24T15:18:19;6.57;;;3.97;;
287;SDS011;128;48.770;9.198;2023-07-24T15:20:45;5.60;;;3.40;;
287;SDS011;128;48.770;9.198;2023-07-24T15:23:11;5.60;;;3.27;;
287;SDS011;128;48.770;9.198;2023-07-24T15:25:38;6.10;;;3.20;;
287;SDS011;128;48.770;9.198;2023-07-24T15:28:04;5.43;;;3.40;;
287;SDS011;128;48.770;9.198;2023-07-24T15:30:31;10.23;;;4.63;;
287;SDS011;128;48.770;9.198;2023-07-24T15:32:57;10.70;;;3.67;;
287;SDS011;128;48.770;9.198;2023-07-24T15:35:23;5.37;;;3.17;;
287;SDS011;128;48.770;9.198;2023-07-24T15:37:48;10.10;;;3.93;;